WetterOnline ( http://www.wetteronline.de )

Wetter aktuell Greifswalder Bodden

Aktuelles Wetter: Greifswalder Oie (12m)

6-stündlich | Neueste Meldungen
Ortszeit Temperatur Wetter
Mo, 22.10. 20:00 10.2° C leicht bewölkt
Mo, 22.10. 14:00 12.9° C wolkig
Mo, 22.10. 8:00 11.3° C bedeckt
Mo, 22.10. 2:00 11.6° C bedeckt
So, 21.10. 20:00 12.5° C bedeckt
So, 21.10. 14:00 13.1° C leicht bewölkt
So, 21.10. 8:00 10.3° C leicht bewölkt
So, 21.10. 2:00 10.2° C wolkenlos
Ortszeit Temperatur Wetter
Di, 23.10. 0:30 9.2° C bewölkt
Di, 23.10. 0:20 9.2° C bewölkt
Di, 23.10. 0:10 9.2° C bewölkt
Di, 23.10. 0:00 9.2° C bewölkt
Mo, 22.10. 23:50 9.2° C bewölkt
Mo, 22.10. 23:40 9.9° C wolkig
Mo, 22.10. 23:30 9.6° C fast wolkenlos
Mo, 22.10. 23:00 9.6° C leicht bewölkt
Mo, 22.10. 22:30 10.5° C fast wolkenlos
Mo, 22.10. 22:00 10.4° C fast wolkenlos
Mo, 22.10. 21:30 10.5° C leicht bewölkt
Ortszeit Relative Feuchte Sichtweite
Mo, 22.10. 20:00 74% 35 km
Mo, 22.10. 14:00 61% 30 km
Mo, 22.10. 8:00 89% 6 km
Mo, 22.10. 2:00 81% 22 km
So, 21.10. 20:00 77% 45 km
So, 21.10. 14:00 77% 14 km
So, 21.10. 8:00 95% 7 km
So, 21.10. 2:00 90% 30 km
Ortszeit Relative Feuchte Sichtweite
Di, 23.10. 0:30 81% 30 km
Di, 23.10. 0:20 81% -
Di, 23.10. 0:10 82% -
Di, 23.10. 0:00 80% 35 km
Mo, 22.10. 23:50 80% -
Mo, 22.10. 23:40 80% -
Mo, 22.10. 23:30 78% 40 km
Mo, 22.10. 23:00 76% 35 km
Mo, 22.10. 22:30 73% 35 km
Mo, 22.10. 22:00 74% 35 km
Mo, 22.10. 21:30 73% 35 km
Ortszeit Niederschlagsmenge Niederschlagsart
Mo, 22.10. 20:00 0.1 l/m2 in 12 Std. -
Mo, 22.10. 14:00 0.1 l/m2 in 6 Std. Regen
Mo, 22.10. 8:00 0.1 l/m2 in 12 Std. Sprühregen
Mo, 22.10. 2:00 0.0 l/m2 in 6 Std. -
So, 21.10. 20:00 0.0 l/m2 in 12 Std. -
So, 21.10. 14:00 0.0 l/m2 in 6 Std. -
So, 21.10. 8:00 0.0 l/m2 in 12 Std. -
So, 21.10. 2:00 0.0 l/m2 in 6 Std. -
Ortszeit Niederschlagsmenge Niederschlagsart
Di, 23.10. 0:30 0.1 l/m2 in 1 Std. Schnee
Di, 23.10. 0:20 keine Meldung -
Di, 23.10. 0:10 keine Meldung -
Di, 23.10. 0:00 0.0 l/m2 in 1 Std. -
Mo, 22.10. 23:50 keine Meldung -
Mo, 22.10. 23:40 keine Meldung -
Mo, 22.10. 23:30 0.0 l/m2 in 1 Std. -
Mo, 22.10. 23:00 0.0 l/m2 in 1 Std. -
Mo, 22.10. 22:30 0.0 l/m2 in 1 Std. -
Mo, 22.10. 22:00 0.0 l/m2 in 1 Std. -
Mo, 22.10. 21:30 0.0 l/m2 in 1 Std. -
Ortszeit Stärke Spitze Richtung
km/h Bft. km/h Grad Sektor
Mo, 22.10. 20:00 32 5 61 300° NW
Mo, 22.10. 14:00 44 6 59 320° NW
Mo, 22.10. 8:00 32 5 43 260° W
Mo, 22.10. 2:00 30 5 39 220° SW
So, 21.10. 20:00 20 4 26 210° SW
So, 21.10. 14:00 18 3 25 240° SW
So, 21.10. 8:00 17 3 24 260° W
So, 21.10. 2:00 20 4 33 310° NW
Ortszeit Stärke Spitze Richtung
km/h Bft. km/h Grad Sektor
Di, 23.10. 0:30 41 6 48 250° W
Di, 23.10. 0:20 41 6 - 250° W
Di, 23.10. 0:10 40 6 - 250° W
Di, 23.10. 0:00 40 6 47 250° W
Mo, 22.10. 23:50 40 6 - 250° W
Mo, 22.10. 23:40 37 5 - 260° W
Mo, 22.10. 23:30 35 5 46 260° W
Mo, 22.10. 23:00 36 5 47 260° W
Mo, 22.10. 22:30 37 5 44 270° W
Mo, 22.10. 22:00 41 6 48 280° W
Mo, 22.10. 21:30 40 6 47 280° W
Ortszeit Untergrenze Bedeckung Gattung
total tief tief mittel hoch
Mo, 22.10. 20:00 1080 m 3/8 - - - -
Mo, 22.10. 14:00 1050 m 7/8 6/8 - - -
Mo, 22.10. 8:00 270 m 8/8 8/8 - - -
Mo, 22.10. 2:00 1050 m 8/8 8/8 - - -
So, 21.10. 20:00 2400 m 8/8 8/8 - - -
So, 21.10. 14:00 9000 m 3/8 0/8 - - -
So, 21.10. 8:00 120 m 5/8 2/8 - - -
So, 21.10. 2:00 - 0/8 0/8 - - -
Ortszeit Bedeckungsgrad in Achtel und Wolkenuntergrenze
Di, 23.10. 0:30 3(720m) 7(1260m) 8(8700m)
Di, 23.10. 0:20 3(720m) 7(1260m) 8(8700m)
Di, 23.10. 0:10 4(720m) 7(1230m) 8(8700m)
Di, 23.10. 0:00 5(840m) 7(1200m) 8(8700m)
Mo, 22.10. 23:50 5(840m) 7(1200m)
Mo, 22.10. 23:40 4(870m) 5(1140m)
Mo, 22.10. 23:30 1(900m) 2(1140m)
Mo, 22.10. 23:00 1(2100m) 5(5700m)
Mo, 22.10. 22:30 1(2100m)
Mo, 22.10. 22:00 1(9000m)
Mo, 22.10. 21:30 4(9000m)
Ortszeit Luftdruck NN (hPa) Tendenz (hPa in 3 Std.)
Mo, 22.10. 20:00 1026 - 0,4
Mo, 22.10. 14:00 1025 + 0,6
Mo, 22.10. 8:00 1022 - 0,1
Mo, 22.10. 2:00 1024 - 0,9
So, 21.10. 20:00 1026 - 0,4
So, 21.10. 14:00 1028 - 0,7
So, 21.10. 8:00 1028 + 0,2
So, 21.10. 2:00 1027 + 0,3
Ortszeit Luftdruck NN (hPa) Tendenz (hPa in 3 Std.)
Di, 23.10. 0:30 1023 - 2,1
Di, 23.10. 0:20 1023 keine Meldung
Di, 23.10. 0:10 1023 keine Meldung
Di, 23.10. 0:00 1024 - 1,8
Mo, 22.10. 23:50 1024 keine Meldung
Mo, 22.10. 23:40 1024 keine Meldung
Mo, 22.10. 23:30 1024 - 1,0
Mo, 22.10. 23:00 1025 - 1,2
Mo, 22.10. 22:30 1025 - 1,5
Mo, 22.10. 22:00 1025 - 1,3
Mo, 22.10. 21:30 1025 - 1,2
Ortszeit Schneehöhe (cm)
Mo, 22.10. 20:00 0
Mo, 22.10. 14:00 0
Mo, 22.10. 8:00 0
Mo, 22.10. 2:00 0
So, 21.10. 20:00 0
So, 21.10. 14:00 0
So, 21.10. 8:00 0
So, 21.10. 2:00 0
Ortszeit Schneehöhe (cm)
Di, 23.10. 0:30 0
Di, 23.10. 0:20 0
Di, 23.10. 0:10 0
Di, 23.10. 0:00 0
Mo, 22.10. 23:50 0
Mo, 22.10. 23:40 0
Mo, 22.10. 23:30 0
Mo, 22.10. 23:00 0
Mo, 22.10. 22:30 0
Mo, 22.10. 22:00 0
Mo, 22.10. 21:30 0
Link zu dieser Seite / Seite empfehlen

Das Wetter in ...